Colorado Springs, CO (80916)

3:10 AM MDT on August 22, 2014 (GMT -0600)
Soaring Eagles | Change Station
CLOSE
Current Station
Personal Weather Station
Location: Colorado Springs, CO
Elevation: 5991 ft
Nearby Weather Stations

Elev 5991 ft 38.79 °N, 104.74 °W | Updated 8 seconds ago

Mostly Cloudy
Mostly Cloudy
64.8 °F
Feels Like 64.8 °F
N
2.2
Wind Variable Wind from NNE
Gusts 3.4 mph

Today
High -- | Low -- °F
--% Chance of Precip.
Yesterday
High -- | Low -- °F
Precip. -- in
6:18 AM 7:43 PM
Waning Crescent, 9% visible
Pressure 29.90 in
Visibility 10.0 miles
Clouds Scattered Clouds 7500 ft
Scattered Clouds 11000 ft
Mostly Cloudy 22000 ft
Dew Point 49 °F
Humidity 56%
Rainfall 0.00 in
Snow Depth Not available.
UV 0 out of 12
Pollen 9.30 out of 12
PM2.5 Good
Flu Activity Not available.
METAR KCOS 220854Z 34009KT 10SM SCT075 SCT110 BKN220 18/09 A3018 RMK AO2 SLP123 T01830094 58004 $

More Conditions Fewer Conditions

Pressure 29.90 in
Visibility 10.0 miles
Clouds Scattered Clouds 7500 ft
Scattered Clouds 11000 ft
Mostly Cloudy 22000 ft
Dew Point 49 °F
Humidity 56%
Rainfall 0.00 in
Snow Depth Not available.
UV 0 out of 12
Pollen 9.30 out of 12
PM2.5 Good
Flu Activity Not available.
METAR KCOS 220854Z 34009KT 10SM SCT075 SCT110 BKN220 18/09 A3018 RMK AO2 SLP123 T01830094 58004 $

More Conditions Fewer Conditions

10-Day Weather Forecast

Almanac

Astronomy

Aug. 22, 2014 Rise Set
Actual Time 6:18 AM MDT 7:43 PM MDT
Civil Twilight 5:51 AM MDT 8:11 PM MDT
Nautical Twilight 5:17 AM MDT 8:44 PM MDT
Astronomical Twilight 4:42 AM MDT 9:20 PM MDT
Moon 3:44 AM MDT 5:53 PM MDT
Length of Visible Light 14h 20m
Length of Day
13h 24m
Tomorrow will be 2m 19s shorter.
Waning Crescent, 9% of the Moon is Illuminated
Today
Waning Crescent
Aug 25
New
Sep 2
First Quarter
Sep 8
Full
Sep 15
Last Quarter

Today's Extremes

State Highs State Lows

Community

WunderPhotos

Upload Photos

1,746,146 photos uploaded!

Nearby

Air Quality

  Air Quality AQ Index Pollutant
Yesterday Good
OZONE
Yesterday Good
PM2.5
Current Good
PM2.5
Friday Good
PM2.5
Friday Good
OZONE

Snow Depth

Station Depth Elevation
Glen Cove 0 in 11460 ft
South Colony 0 in 10800 ft
Rough And Tumble 1 in 10360 ft
Echo Lake 0 in 10600 ft
Medano Pass 0 in 9620 ft

Earthquake Activity

City Distance Mag. Time & Date
No recent earthquake activity has been reported nearby.
Minimum magnitude displayed is 2.5.

Coastal Water Temperatures

Place Temperature
No Stations Reporting

Nearby Weather Stations